createdAt,value
2018-12-31T00:07:46.606Z,87.97
2018-12-31T00:13:47.505Z,87.68
2018-12-31T00:19:01.477Z,87.34
2018-12-31T00:24:08.464Z,87.74
2018-12-31T00:29:22.454Z,87.27
2018-12-31T00:34:39.020Z,86.96
2018-12-31T00:45:25.078Z,86.84
2018-12-31T00:50:39.066Z,87.01
2018-12-31T01:12:21.060Z,87.49
2018-12-31T01:17:35.048Z,87.79
2018-12-31T01:44:53.678Z,88.86
2018-12-31T01:49:48.326Z,88.98
2018-12-31T02:01:24.411Z,88.85
2018-12-31T02:12:37.466Z,89.00
2018-12-31T02:29:20.596Z,88.47
2018-12-31T02:40:17.930Z,87.74
2018-12-31T02:45:28.560Z,87.61
2018-12-31T02:50:42.620Z,88.22
2018-12-31T02:55:50.965Z,88.55
2018-12-31T03:07:23.485Z,89.35
2018-12-31T03:12:30.077Z,90.01
2018-12-31T03:17:44.054Z,89.91
2018-12-31T03:22:52.060Z,90.08
2018-12-31T03:28:06.047Z,89.63
2018-12-31T03:33:00.659Z,88.75
2018-12-31T03:38:14.662Z,89.19
2018-12-31T03:43:35.333Z,89.24
2018-12-31T03:48:43.567Z,89.33
2018-12-31T03:53:51.051Z,89.20
2018-12-31T03:59:05.040Z,89.48
2018-12-31T04:04:13.198Z,89.50
2018-12-31T04:09:27.180Z,89.27
2018-12-31T04:14:40.712Z,90.20
2018-12-31T04:19:48.313Z,90.18
2018-12-31T04:25:02.310Z,90.64
2018-12-31T04:30:34.594Z,90.42
2018-12-31T04:35:29.214Z,90.39
2018-12-31T04:46:13.684Z,90.26
2018-12-31T04:51:27.674Z,89.89
2018-12-31T04:56:34.160Z,89.96
2018-12-31T05:01:48.132Z,89.46
2018-12-31T05:06:42.822Z,89.66
2018-12-31T05:12:32.624Z,89.91
2018-12-31T05:17:46.618Z,89.54
2018-12-31T05:22:54.796Z,89.60
2018-12-31T05:27:49.488Z,90.00
2018-12-31T05:33:03.463Z,90.36
2018-12-31T05:38:10.619Z,90.43
2018-12-31T05:43:20.977Z,90.29
2018-12-31T05:48:28.169Z,89.83
2018-12-31T05:53:42.154Z,89.46
2018-12-31T05:58:53.211Z,89.17
2018-12-31T06:03:47.894Z,89.68
2018-12-31T06:09:01.895Z,90.62
2018-12-31T06:13:56.529Z,90.37
2018-12-31T06:19:10.513Z,90.51
2018-12-31T06:24:05.130Z,89.78
2018-12-31T06:29:37.243Z,89.25
2018-12-31T06:34:45.061Z,89.71
2018-12-31T06:39:59.039Z,89.68
2018-12-31T06:45:12.497Z,90.16
2018-12-31T06:56:02.772Z,90.97
2018-12-31T07:00:57.389Z,91.24
2018-12-31T07:06:11.389Z,91.55
2018-12-31T07:11:25.892Z,91.19
2018-12-31T07:16:33.362Z,91.18
2018-12-31T07:21:27.972Z,91.12
2018-12-31T07:26:41.955Z,90.96
2018-12-31T07:31:50.036Z,90.28
2018-12-31T07:37:04.020Z,89.47
2018-12-31T07:42:10.560Z,89.96
2018-12-31T07:52:43.895Z,88.79
2018-12-31T07:57:38.515Z,88.51
2018-12-31T08:02:52.589Z,87.88
2018-12-31T08:08:06.568Z,86.73
2018-12-31T08:13:17.328Z,86.73
2018-12-31T08:18:31.354Z,86.31
2018-12-31T08:23:40.643Z,87.02
2018-12-31T08:28:54.718Z,86.89
2018-12-31T08:34:26.934Z,86.82
2018-12-31T08:39:33.419Z,86.70
2018-12-31T08:44:28.112Z,87.09
2018-12-31T08:49:42.083Z,87.15
2018-12-31T08:54:36.677Z,87.30
2018-12-31T08:59:50.663Z,87.68
2018-12-31T09:10:35.300Z,87.00
2018-12-31T09:15:49.291Z,87.41
2018-12-31T09:20:57.855Z,87.35
2018-12-31T09:26:11.863Z,86.59
2018-12-31T09:31:25.086Z,86.51
2018-12-31T09:36:31.923Z,86.54
2018-12-31T09:41:40.035Z,86.97
2018-12-31T09:46:46.843Z,86.91
2018-12-31T09:52:00.831Z,86.23
2018-12-31T09:57:08.784Z,85.65
2018-12-31T10:02:22.879Z,85.21
2018-12-31T10:07:31.310Z,84.51
2018-12-31T10:12:45.320Z,84.99
2018-12-31T10:17:53.186Z,85.96
2018-12-31T10:23:07.532Z,85.68
2018-12-31T10:28:15.192Z,86.35
2018-12-31T10:33:29.186Z,85.42
2018-12-31T10:38:37.404Z,85.38
2018-12-31T10:43:32.037Z,85.00
2018-12-31T10:53:57.386Z,86.36
2018-12-31T10:59:11.375Z,86.19
2018-12-31T11:04:18.780Z,85.84
2018-12-31T11:09:32.881Z,85.74
2018-12-31T11:14:49.431Z,86.51
2018-12-31T11:19:44.067Z,85.03
2018-12-31T11:25:35.373Z,86.41
2018-12-31T11:30:49.465Z,86.80
2018-12-31T11:35:57.461Z,86.55
2018-12-31T11:41:10.724Z,86.60
2018-12-31T11:46:18.541Z,87.04
2018-12-31T11:51:13.163Z,86.48
2018-12-31T11:56:27.160Z,87.03
2018-12-31T12:06:52.704Z,86.67
2018-12-31T12:12:06.690Z,86.14
2018-12-31T12:17:15.304Z,85.53
2018-12-31T12:22:29.299Z,86.32
2018-12-31T12:27:36.849Z,84.46
2018-12-31T12:32:50.847Z,84.29
2018-12-31T12:37:59.241Z,85.87
2018-12-31T12:42:53.920Z,86.44
2018-12-31T12:48:07.897Z,86.16
2018-12-31T12:53:16.683Z,86.39
2018-12-31T12:58:11.448Z,86.07
2018-12-31T13:03:25.438Z,86.20
2018-12-31T13:08:32.388Z,86.74
2018-12-31T13:13:50.594Z,86.47
2018-12-31T13:19:04.587Z,85.93
2018-12-31T13:29:55.150Z,85.49
2018-12-31T13:35:09.411Z,85.47
2018-12-31T13:40:20.612Z,85.07
2018-12-31T13:45:37.375Z,85.44
2018-12-31T13:50:45.691Z,85.87
2018-12-31T13:55:59.663Z,84.73
2018-12-31T14:06:47.745Z,82.75
2018-12-31T14:12:01.728Z,82.73
2018-12-31T14:17:09.119Z,83.72
2018-12-31T14:22:23.454Z,82.99
2018-12-31T14:27:36.674Z,82.65
2018-12-31T14:32:44.420Z,82.90
2018-12-31T14:44:02.813Z,83.44
2018-12-31T14:49:10.377Z,83.95
2018-12-31T14:54:24.380Z,84.20
2018-12-31T14:59:32.038Z,84.39
2018-12-31T15:04:46.021Z,84.50
2018-12-31T15:09:40.820Z,84.79
2018-12-31T15:14:54.832Z,84.68
2018-12-31T15:20:10.064Z,85.19
2018-12-31T15:25:17.918Z,85.20
2018-12-31T15:30:31.969Z,85.62
2018-12-31T15:35:40.332Z,85.70
2018-12-31T15:40:48.262Z,85.96
2018-12-31T15:46:04.979Z,85.79
2018-12-31T15:51:13.173Z,86.01
2018-12-31T15:56:27.576Z,86.86
2018-12-31T16:01:36.203Z,87.91
2018-12-31T16:06:50.195Z,88.52
2018-12-31T16:12:08.527Z,88.86
2018-12-31T16:17:16.515Z,89.04
2018-12-31T16:22:30.508Z,89.15
2018-12-31T16:27:38.648Z,89.53
2018-12-31T16:38:55.210Z,91.12
2018-12-31T16:44:01.836Z,91.45
2018-12-31T16:49:15.848Z,90.84
2018-12-31T16:54:23.264Z,89.71
2018-12-31T17:00:13.270Z,90.50
2018-12-31T17:05:19.942Z,90.46
2018-12-31T17:16:34.031Z,89.67
2018-12-31T17:21:49.996Z,89.54
2018-12-31T17:27:01.127Z,88.74
2018-12-31T17:32:15.110Z,88.95
2018-12-31T17:37:22.319Z,89.56
2018-12-31T17:42:30.628Z,89.37
2018-12-31T17:47:25.246Z,90.14
2018-12-31T17:52:39.301Z,90.50
2018-12-31T17:57:53.291Z,90.58
2018-12-31T18:08:30.982Z,90.14
2018-12-31T18:13:44.972Z,89.54
2018-12-31T18:18:58.953Z,89.09
2018-12-31T18:24:06.499Z,89.09
2018-12-31T18:29:20.480Z,89.31
2018-12-31T18:34:29.244Z,89.34
2018-12-31T18:39:49.596Z,89.31
2018-12-31T18:44:57.061Z,89.04
2018-12-31T18:50:11.151Z,89.43
2018-12-31T18:55:19.507Z,90.43
2018-12-31T19:00:33.804Z,90.41
2018-12-31T19:05:41.841Z,90.10
2018-12-31T19:10:55.861Z,89.71
2018-12-31T19:16:03.535Z,89.78
2018-12-31T19:21:17.515Z,89.67
2018-12-31T19:26:25.153Z,90.28
2018-12-31T19:31:39.163Z,90.04
2018-12-31T19:42:04.723Z,90.81
2018-12-31T19:47:18.723Z,92.42
2018-12-31T19:57:43.418Z,91.49
2018-12-31T20:03:42.708Z,91.15
2018-12-31T20:08:37.341Z,90.79
2018-12-31T20:14:09.333Z,90.51
2018-12-31T20:24:59.221Z,89.71
2018-12-31T20:30:07.223Z,89.43
2018-12-31T20:35:21.210Z,89.48
2018-12-31T20:40:29.596Z,90.18
2018-12-31T20:45:43.641Z,89.86
2018-12-31T20:50:50.215Z,89.72
2018-12-31T20:56:48.982Z,89.55
2018-12-31T21:02:02.962Z,89.59
2018-12-31T21:07:10.339Z,89.87
2018-12-31T21:12:24.331Z,88.89
2018-12-31T21:17:32.985Z,88.53
2018-12-31T21:22:46.984Z,88.41
2018-12-31T21:27:56.407Z,87.90
2018-12-31T21:33:10.434Z,87.62
2018-12-31T21:38:17.022Z,87.47
2018-12-31T21:43:24.398Z,87.69
2018-12-31T21:48:31.763Z,87.17
2018-12-31T21:53:45.843Z,87.29
2018-12-31T21:58:54.232Z,87.21
2018-12-31T22:04:08.236Z,87.25
2018-12-31T22:09:16.289Z,87.26
2018-12-31T22:14:30.551Z,87.59
2018-12-31T22:19:38.035Z,87.62
2018-12-31T22:24:52.033Z,87.64
2018-12-31T22:29:59.971Z,87.21
2018-12-31T22:35:13.958Z,87.32
2018-12-31T22:40:21.083Z,87.67
2018-12-31T22:51:38.162Z,87.30
2018-12-31T22:56:46.183Z,86.91
2018-12-31T23:02:00.552Z,87.32
2018-12-31T23:07:08.196Z,87.77
2018-12-31T23:12:22.180Z,88.06
2018-12-31T23:17:30.559Z,87.63
2018-12-31T23:22:44.557Z,87.00
2018-12-31T23:27:53.567Z,87.20
2018-12-31T23:33:07.579Z,86.91
2018-12-31T23:38:15.751Z,87.09
2018-12-31T23:43:23.728Z,85.89
2018-12-31T23:48:30.411Z,87.25
2018-12-31T23:53:44.428Z,87.64
2018-12-31T23:58:54.219Z,87.37
